sensor_id;sensor_type;location;lat;lon;timestamp;pressure;altitude;pressure_sealevel;temperature;humidity
17635;BME280;8936;49.010;12.120;2023-04-16T00:00:10;97611.03;;;11.65;100.00
17635;BME280;8936;49.010;12.120;2023-04-16T00:02:37;97618.00;;;11.61;100.00
17635;BME280;8936;49.010;12.120;2023-04-16T00:05:03;97614.88;;;11.54;100.00
17635;BME280;8936;49.010;12.120;2023-04-16T00:07:30;97616.69;;;11.59;100.00
17635;BME280;8936;49.010;12.120;2023-04-16T00:09:56;97614.88;;;11.49;100.00
17635;BME280;8936;49.010;12.120;2023-04-16T00:12:24;97620.22;;;11.54;100.00
17635;BME280;8936;49.010;12.120;2023-04-16T00:14:51;97620.25;;;11.44;100.00
17635;BME280;8936;49.010;12.120;2023-04-16T00:17:17;97619.09;;;11.60;100.00
17635;BME280;8936;49.010;12.120;2023-04-16T00:19:44;97613.75;;;11.60;100.00
17635;BME280;8936;49.010;12.120;2023-04-16T00:22:10;97616.38;;;11.65;100.00
17635;BME280;8936;49.010;12.120;2023-04-16T00:24:36;97617.53;;;11.49;100.00
17635;BME280;8936;49.010;12.120;2023-04-16T00:27:03;97626.84;;;10.98;100.00
17635;BME280;8936;49.010;12.120;2023-04-16T00:29:31;97621.00;;;10.91;100.00
17635;BME280;8936;49.010;12.120;2023-04-16T00:31:58;97612.97;;;10.91;100.00
17635;BME280;8936;49.010;12.120;2023-04-16T00:34:25;97619.13;;;10.91;100.00
17635;BME280;8936;49.010;12.120;2023-04-16T00:36:51;97619.94;;;10.92;100.00
17635;BME280;8936;49.010;12.120;2023-04-16T00:39:17;97613.50;;;10.93;100.00
17635;BME280;8936;49.010;12.120;2023-04-16T00:41:44;97618.34;;;10.86;100.00
17635;BME280;8936;49.010;12.120;2023-04-16T00:44:11;97617.25;;;10.87;100.00
17635;BME280;8936;49.010;12.120;2023-04-16T00:46:38;97623.13;;;10.83;100.00
17635;BME280;8936;49.010;12.120;2023-04-16T00:49:05;97619.97;;;10.71;100.00
17635;BME280;8936;49.010;12.120;2023-04-16T00:51:32;97624.88;;;11.28;100.00
17635;BME280;8936;49.010;12.120;2023-04-16T00:54:00;97618.13;;;11.41;100.00
17635;BME280;8936;49.010;12.120;2023-04-16T00:56:26;97620.47;;;11.53;100.00
17635;BME280;8936;49.010;12.120;2023-04-16T00:58:53;97618.31;;;11.60;100.00
17635;BME280;8936;49.010;12.120;2023-04-16T01:01:20;97614.81;;;11.59;100.00
17635;BME280;8936;49.010;12.120;2023-04-16T01:03:48;97622.34;;;11.57;100.00
17635;BME280;8936;49.010;12.120;2023-04-16T01:06:15;97628.19;;;11.59;100.00
17635;BME280;8936;49.010;12.120;2023-04-16T01:08:42;97620.50;;;11.48;100.00
17635;BME280;8936;49.010;12.120;2023-04-16T01:11:08;97628.75;;;11.56;100.00
17635;BME280;8936;49.010;12.120;2023-04-16T01:13:34;97622.41;;;11.37;100.00
17635;BME280;8936;49.010;12.120;2023-04-16T01:16:03;97626.63;;;11.53;100.00
17635;BME280;8936;49.010;12.120;2023-04-16T01:18:29;97627.19;;;11.45;100.00
17635;BME280;8936;49.010;12.120;2023-04-16T01:20:57;97616.53;;;11.40;100.00
17635;BME280;8936;49.010;12.120;2023-04-16T01:23:23;97620.72;;;11.56;100.00
17635;BME280;8936;49.010;12.120;2023-04-16T01:25:50;97618.34;;;11.50;100.00
17635;BME280;8936;49.010;12.120;2023-04-16T01:28:16;97631.69;;;11.55;100.00
17635;BME280;8936;49.010;12.120;2023-04-16T01:30:43;97630.94;;;11.44;100.00
17635;BME280;8936;49.010;12.120;2023-04-16T01:33:09;97637.03;;;11.55;100.00
17635;BME280;8936;49.010;12.120;2023-04-16T01:35:36;97633.03;;;11.52;100.00
17635;BME280;8936;49.010;12.120;2023-04-16T01:38:04;97634.66;;;11.48;100.00
17635;BME280;8936;49.010;12.120;2023-04-16T01:40:31;97626.88;;;11.52;100.00
17635;BME280;8936;49.010;12.120;2023-04-16T01:42:58;97634.91;;;11.52;100.00
17635;BME280;8936;49.010;12.120;2023-04-16T01:45:24;97633.59;;;11.54;100.00
17635;BME280;8936;49.010;12.120;2023-04-16T01:47:50;97633.03;;;11.57;100.00
17635;BME280;8936;49.010;12.120;2023-04-16T01:50:17;97635.97;;;10.92;100.00
17635;BME280;8936;49.010;12.120;2023-04-16T01:52:44;97636.66;;;11.17;100.00
17635;BME280;8936;49.010;12.120;2023-04-16T01:55:12;97640.38;;;11.26;100.00
17635;BME280;8936;49.010;12.120;2023-04-16T01:57:38;97641.44;;;11.30;100.00
17635;BME280;8936;49.010;12.120;2023-04-16T02:00:05;97643.00;;;11.42;100.00
17635;BME280;8936;49.010;12.120;2023-04-16T02:02:33;97638.94;;;11.49;100.00
17635;BME280;8936;49.010;12.120;2023-04-16T02:05:00;97648.03;;;11.48;100.00
17635;BME280;8936;49.010;12.120;2023-04-16T02:07:26;97642.75;;;11.38;100.00
17635;BME280;8936;49.010;12.120;2023-04-16T02:09:52;97643.28;;;11.35;100.00
17635;BME280;8936;49.010;12.120;2023-04-16T02:12:20;97642.75;;;11.38;100.00
17635;BME280;8936;49.010;12.120;2023-04-16T02:14:49;97654.25;;;11.38;100.00
17635;BME280;8936;49.010;12.120;2023-04-16T02:17:15;97650.47;;;11.39;100.00
17635;BME280;8936;49.010;12.120;2023-04-16T02:19:42;97648.59;;;11.40;100.00
17635;BME280;8936;49.010;12.120;2023-04-16T02:22:08;97660.97;;;11.26;100.00
17635;BME280;8936;49.010;12.120;2023-04-16T02:24:34;97662.53;;;11.37;100.00
17635;BME280;8936;49.010;12.120;2023-04-16T02:27:01;97653.06;;;10.86;100.00
17635;BME280;8936;49.010;12.120;2023-04-16T02:29:29;97661.66;;;10.57;100.00
17635;BME280;8936;49.010;12.120;2023-04-16T02:31:56;97655.25;;;10.63;100.00
17635;BME280;8936;49.010;12.120;2023-04-16T02:34:23;97656.56;;;10.66;100.00
17635;BME280;8936;49.010;12.120;2023-04-16T02:36:49;97661.38;;;10.69;100.00
17635;BME280;8936;49.010;12.120;2023-04-16T02:39:16;97656.84;;;10.69;100.00
17635;BME280;8936;49.010;12.120;2023-04-16T02:41:42;97665.38;;;10.71;100.00
17635;BME280;8936;49.010;12.120;2023-04-16T02:44:08;97676.34;;;10.70;100.00
17635;BME280;8936;49.010;12.120;2023-04-16T02:46:36;97662.97;;;10.70;100.00
17635;BME280;8936;49.010;12.120;2023-04-16T02:49:02;97675.00;;;10.67;100.00
17635;BME280;8936;49.010;12.120;2023-04-16T02:51:29;97670.97;;;10.65;100.00
17635;BME280;8936;49.010;12.120;2023-04-16T02:53:57;97672.34;;;10.42;100.00
17635;BME280;8936;49.010;12.120;2023-04-16T02:56:23;97677.16;;;10.35;100.00
17635;BME280;8936;49.010;12.120;2023-04-16T02:58:50;97676.88;;;10.42;100.00
17635;BME280;8936;49.010;12.120;2023-04-16T03:01:16;97680.09;;;10.49;100.00
17635;BME280;8936;49.010;12.120;2023-04-16T03:03:44;97676.63;;;10.58;100.00
17635;BME280;8936;49.010;12.120;2023-04-16T03:06:10;97678.75;;;10.61;100.00
17635;BME280;8936;49.010;12.120;2023-04-16T03:08:37;97678.22;;;10.64;100.00
17635;BME280;8936;49.010;12.120;2023-04-16T03:11:03;97681.13;;;10.68;100.00
17635;BME280;8936;49.010;12.120;2023-04-16T03:13:29;97678.47;;;10.68;100.00
17635;BME280;8936;49.010;12.120;2023-04-16T03:15:56;97682.19;;;10.72;100.00
17635;BME280;8936;49.010;12.120;2023-04-16T03:18:22;97680.06;;;10.59;100.00
17635;BME280;8936;49.010;12.120;2023-04-16T03:20:51;97681.97;;;10.58;100.00
17635;BME280;8936;49.010;12.120;2023-04-16T03:23:18;97687.53;;;10.62;100.00
17635;BME280;8936;49.010;12.120;2023-04-16T03:25:44;97682.75;;;10.64;100.00
17635;BME280;8936;49.010;12.120;2023-04-16T03:28:12;97686.75;;;10.51;100.00
17635;BME280;8936;49.010;12.120;2023-04-16T03:30:38;97687.81;;;10.50;100.00
17635;BME280;8936;49.010;12.120;2023-04-16T03:33:04;97691.56;;;10.54;100.00
17635;BME280;8936;49.010;12.120;2023-04-16T03:35:31;97692.66;;;10.58;100.00
17635;BME280;8936;49.010;12.120;2023-04-16T03:37:58;97695.31;;;10.58;100.00
17635;BME280;8936;49.010;12.120;2023-04-16T03:40:25;97696.38;;;10.57;100.00
17635;BME280;8936;49.010;12.120;2023-04-16T03:42:51;97701.19;;;10.60;100.00
17635;BME280;8936;49.010;12.120;2023-04-16T03:45:17;97692.09;;;10.61;100.00
17635;BME280;8936;49.010;12.120;2023-04-16T03:47:44;97695.31;;;10.63;100.00
17635;BME280;8936;49.010;12.120;2023-04-16T03:50:12;97695.31;;;10.58;100.00
17635;BME280;8936;49.010;12.120;2023-04-16T03:52:38;97700.91;;;10.57;100.00
17635;BME280;8936;49.010;12.120;2023-04-16T03:55:07;97707.06;;;10.57;100.00
17635;BME280;8936;49.010;12.120;2023-04-16T03:57:33;97708.13;;;10.61;100.00
17635;BME280;8936;49.010;12.120;2023-04-16T03:59:59;97712.13;;;10.64;100.00
17635;BME280;8936;49.010;12.120;2023-04-16T04:02:26;97714.25;;;10.67;100.00
17635;BME280;8936;49.010;12.120;2023-04-16T04:04:52;97713.19;;;10.68;100.00
17635;BME280;8936;49.010;12.120;2023-04-16T04:07:19;97716.66;;;10.63;100.00
17635;BME280;8936;49.010;12.120;2023-04-16T04:09:45;97719.84;;;10.65;100.00
17635;BME280;8936;49.010;12.120;2023-04-16T04:12:13;97719.84;;;10.65;100.00
17635;BME280;8936;49.010;12.120;2023-04-16T04:14:39;97722.00;;;10.68;100.00
17635;BME280;8936;49.010;12.120;2023-04-16T04:17:05;97719.31;;;10.68;100.00
17635;BME280;8936;49.010;12.120;2023-04-16T04:19:32;97728.44;;;10.67;100.00
17635;BME280;8936;49.010;12.120;2023-04-16T04:21:58;97721.19;;;10.63;100.00
17635;BME280;8936;49.010;12.120;2023-04-16T04:24:25;97717.97;;;10.56;100.00
17635;BME280;8936;49.010;12.120;2023-04-16T04:26:51;97735.38;;;10.58;100.00
17635;BME280;8936;49.010;12.120;2023-04-16T04:29:19;97731.06;;;10.62;100.00
17635;BME280;8936;49.010;12.120;2023-04-16T04:31:45;97735.88;;;10.65;100.00
17635;BME280;8936;49.010;12.120;2023-04-16T04:34:12;97746.31;;;10.67;100.00
17635;BME280;8936;49.010;12.120;2023-04-16T04:36:38;97737.22;;;10.63;100.00
17635;BME280;8936;49.010;12.120;2023-04-16T04:39:04;97740.97;;;10.67;100.00
17635;BME280;8936;49.010;12.120;2023-04-16T04:41:31;97742.03;;;10.66;100.00
17635;BME280;8936;49.010;12.120;2023-04-16T04:43:57;97748.19;;;10.61;100.00
17635;BME280;8936;49.010;12.120;2023-04-16T04:46:25;97743.09;;;10.65;100.00
17635;BME280;8936;49.010;12.120;2023-04-16T04:48:51;97750.31;;;10.64;100.00
17635;BME280;8936;49.010;12.120;2023-04-16T04:51:17;97757.25;;;10.65;100.00
17635;BME280;8936;49.010;12.120;2023-04-16T04:53:44;97748.97;;;10.67;100.00
17635;BME280;8936;49.010;12.120;2023-04-16T04:56:10;97757.00;;;10.67;100.00
17635;BME280;8936;49.010;12.120;2023-04-16T04:58:36;97761.53;;;10.66;100.00
17635;BME280;8936;49.010;12.120;2023-04-16T05:01:03;97761.53;;;10.66;100.00
17635;BME280;8936;49.010;12.120;2023-04-16T05:03:31;97759.94;;;10.60;100.00
17635;BME280;8936;49.010;12.120;2023-04-16T05:05:57;97761.00;;;10.64;100.00
17635;BME280;8936;49.010;12.120;2023-04-16T05:08:23;97772.75;;;10.58;100.00
17635;BME280;8936;49.010;12.120;2023-04-16T05:10:50;97771.13;;;10.57;100.00
17635;BME280;8936;49.010;12.120;2023-04-16T05:13:16;97767.66;;;10.62;100.00
17635;BME280;8936;49.010;12.120;2023-04-16T05:15:42;97772.47;;;10.60;100.00
17635;BME280;8936;49.010;12.120;2023-04-16T05:18:09;97771.66;;;11.20;100.00
17635;BME280;8936;49.010;12.120;2023-04-16T05:20:37;97782.56;;;11.33;100.00
17635;BME280;8936;49.010;12.120;2023-04-16T05:23:03;97771.63;;;11.35;100.00
17635;BME280;8936;49.010;12.120;2023-04-16T05:25:30;97774.28;;;11.35;100.00
17635;BME280;8936;49.010;12.120;2023-04-16T05:27:56;97775.88;;;11.41;100.00
17635;BME280;8936;49.010;12.120;2023-04-16T05:30:22;97780.69;;;11.39;100.00
17635;BME280;8936;49.010;12.120;2023-04-16T05:32:49;97790.31;;;11.40;100.00
17635;BME280;8936;49.010;12.120;2023-04-16T05:35:15;97786.84;;;11.39;100.00
17635;BME280;8936;49.010;12.120;2023-04-16T05:37:43;97790.84;;;11.37;100.00
17635;BME280;8936;49.010;12.120;2023-04-16T05:40:10;97799.69;;;11.37;100.00
17635;BME280;8936;49.010;12.120;2023-04-16T05:42:37;97798.34;;;11.40;100.00
17635;BME280;8936;49.010;12.120;2023-04-16T05:45:04;97806.09;;;11.42;100.00
17635;BME280;8936;49.010;12.120;2023-04-16T05:47:30;97805.56;;;11.39;100.00
17635;BME280;8936;49.010;12.120;2023-04-16T05:49:56;97803.97;;;11.18;100.00
17635;BME280;8936;49.010;12.120;2023-04-16T05:52:23;97801.84;;;11.20;100.00
17635;BME280;8936;49.010;12.120;2023-04-16T05:54:51;97807.47;;;11.29;100.00
17635;BME280;8936;49.010;12.120;2023-04-16T05:57:17;97807.44;;;11.44;100.00
17635;BME280;8936;49.010;12.120;2023-04-16T05:59:43;97809.56;;;11.42;100.00
17635;BME280;8936;49.010;12.120;2023-04-16T06:02:10;97813.34;;;11.11;100.00
17635;BME280;8936;49.010;12.120;2023-04-16T06:04:36;97809.59;;;11.12;100.00
17635;BME280;8936;49.010;12.120;2023-04-16T06:07:02;97816.00;;;10.80;100.00
17635;BME280;8936;49.010;12.120;2023-04-16T06:09:29;97821.34;;;10.65;100.00
17635;BME280;8936;49.010;12.120;2023-04-16T06:11:56;97825.63;;;10.66;100.00
17635;BME280;8936;49.010;12.120;2023-04-16T06:14:23;97818.66;;;10.65;100.00
17635;BME280;8936;49.010;12.120;2023-04-16T06:16:49;97822.41;;;10.69;100.00
17635;BME280;8936;49.010;12.120;2023-04-16T06:19:15;97821.09;;;10.72;100.00
17635;BME280;8936;49.010;12.120;2023-04-16T06:21:42;97826.97;;;10.64;100.00
17635;BME280;8936;49.010;12.120;2023-04-16T06:24:08;97828.81;;;10.63;100.00
17635;BME280;8936;49.010;12.120;2023-04-16T06:26:34;97825.91;;;11.05;100.00
17635;BME280;8936;49.010;12.120;2023-04-16T06:29:02;97822.69;;;11.23;100.00
17635;BME280;8936;49.010;12.120;2023-04-16T06:31:28;97823.75;;;11.37;100.00
17635;BME280;8936;49.010;12.120;2023-04-16T06:33:55;97821.88;;;11.38;100.00
17635;BME280;8936;49.010;12.120;2023-04-16T06:36:21;97829.88;;;11.33;100.00
17635;BME280;8936;49.010;12.120;2023-04-16T06:38:48;97828.03;;;11.18;100.00
17635;BME280;8936;49.010;12.120;2023-04-16T06:41:14;97834.19;;;10.94;100.00
17635;BME280;8936;49.010;12.120;2023-04-16T06:43:40;97834.72;;;10.91;100.00
17635;BME280;8936;49.010;12.120;2023-04-16T06:46:08;97830.44;;;10.90;100.00
17635;BME280;8936;49.010;12.120;2023-04-16T06:48:35;97839.78;;;10.87;100.00
17635;BME280;8936;49.010;12.120;2023-04-16T06:51:01;97837.34;;;10.45;100.00
17635;BME280;8936;49.010;12.120;2023-04-16T06:53:27;97835.47;;;10.51;100.00
17635;BME280;8936;49.010;12.120;2023-04-16T06:55:54;97837.84;;;10.32;100.00
17635;BME280;8936;49.010;12.120;2023-04-16T06:58:20;97846.38;;;10.34;100.00
17635;BME280;8936;49.010;12.120;2023-04-16T07:00:47;97843.22;;;10.42;100.00
17635;BME280;8936;49.010;12.120;2023-04-16T07:03:15;97848.03;;;10.50;100.00
17635;BME280;8936;49.010;12.120;2023-04-16T07:05:41;97848.56;;;10.57;100.00
17635;BME280;8936;49.010;12.120;2023-04-16T07:08:07;97846.19;;;10.71;100.00
17635;BME280;8936;49.010;12.120;2023-04-16T07:10:34;97844.84;;;10.58;100.00
17635;BME280;8936;49.010;12.120;2023-04-16T07:13:01;97847.97;;;10.35;100.00
17635;BME280;8936;49.010;12.120;2023-04-16T07:15:27;97852.50;;;10.29;100.00
17635;BME280;8936;49.010;12.120;2023-04-16T07:17:53;97849.31;;;10.38;100.00
17635;BME280;8936;49.010;12.120;2023-04-16T07:20:21;97842.97;;;10.69;100.00
17635;BME280;8936;49.010;12.120;2023-04-16T07:22:48;97849.41;;;10.78;100.00
17635;BME280;8936;49.010;12.120;2023-04-16T07:25:14;97850.22;;;10.94;100.00
17635;BME280;8936;49.010;12.120;2023-04-16T07:27:40;97845.94;;;10.82;100.00
17635;BME280;8936;49.010;12.120;2023-04-16T07:30:07;97855.53;;;10.83;100.00
17635;BME280;8936;49.010;12.120;2023-04-16T07:32:33;97854.25;;;11.01;100.00
17635;BME280;8936;49.010;12.120;2023-04-16T07:35:00;97851.53;;;10.61;100.00
17635;BME280;8936;49.010;12.120;2023-04-16T07:37:29;97858.44;;;10.52;100.00
17635;BME280;8936;49.010;12.120;2023-04-16T07:39:55;97860.84;;;10.53;100.00
17635;BME280;8936;49.010;12.120;2023-04-16T07:42:22;97858.19;;;10.58;100.00
17635;BME280;8936;49.010;12.120;2023-04-16T07:44:48;97858.72;;;10.65;100.00
17635;BME280;8936;49.010;12.120;2023-04-16T07:47:14;97861.16;;;10.67;100.00
17635;BME280;8936;49.010;12.120;2023-04-16T07:49:41;97859.28;;;10.67;100.00
17635;BME280;8936;49.010;12.120;2023-04-16T07:52:08;97863.25;;;10.65;100.00
17635;BME280;8936;49.010;12.120;2023-04-16T07:54:35;97860.63;;;10.70;100.00
17635;BME280;8936;49.010;12.120;2023-04-16T07:57:02;97865.41;;;10.68;100.00
17635;BME280;8936;49.010;12.120;2023-04-16T07:59:28;97858.75;;;10.70;100.00
17635;BME280;8936;49.010;12.120;2023-04-16T08:01:54;97869.44;;;10.75;100.00
17635;BME280;8936;49.010;12.120;2023-04-16T08:04:21;97867.81;;;10.64;100.00
17635;BME280;8936;49.010;12.120;2023-04-16T08:06:49;97876.63;;;10.65;100.00
17635;BME280;8936;49.010;12.120;2023-04-16T08:09:15;97869.16;;;10.72;100.00
17635;BME280;8936;49.010;12.120;2023-04-16T08:11:43;97884.41;;;10.81;100.00
17635;BME280;8936;49.010;12.120;2023-04-16T08:14:10;97878.81;;;10.83;100.00
17635;BME280;8936;49.010;12.120;2023-04-16T08:16:36;97880.69;;;10.82;100.00
17635;BME280;8936;49.010;12.120;2023-04-16T08:19:04;97888.69;;;10.82;100.00
17635;BME280;8936;49.010;12.120;2023-04-16T08:21:31;97887.91;;;10.97;100.00
17635;BME280;8936;49.010;12.120;2023-04-16T08:23:58;97891.13;;;11.04;100.00
17635;BME280;8936;49.010;12.120;2023-04-16T08:26:24;97889.78;;;10.92;100.00
17635;BME280;8936;49.010;12.120;2023-04-16T08:28:52;97890.31;;;10.89;100.00
17635;BME280;8936;49.010;12.120;2023-04-16T08:31:18;97898.59;;;10.97;100.00
17635;BME280;8936;49.010;12.120;2023-04-16T08:33:45;97899.16;;;11.04;100.00
17635;BME280;8936;49.010;12.120;2023-04-16T08:36:11;97900.75;;;11.15;100.00
17635;BME280;8936;49.010;12.120;2023-04-16T08:38:38;97896.19;;;11.16;100.00
17635;BME280;8936;49.010;12.120;2023-04-16T08:41:05;97899.94;;;11.10;100.00
17635;BME280;8936;49.010;12.120;2023-04-16T08:43:33;97905.03;;;11.16;100.00
17635;BME280;8936;49.010;12.120;2023-04-16T08:46:03;97910.38;;;11.31;100.00
17635;BME280;8936;49.010;12.120;2023-04-16T08:48:31;97910.91;;;11.28;100.00
17635;BME280;8936;49.010;12.120;2023-04-16T08:50:59;97918.94;;;11.28;100.00
17635;BME280;8936;49.010;12.120;2023-04-16T08:53:27;97916.25;;;11.49;100.00
17635;BME280;8936;49.010;12.120;2023-04-16T08:55:54;97913.84;;;11.52;100.00
17635;BME280;8936;49.010;12.120;2023-04-16T08:58:25;97920.25;;;11.61;100.00
17635;BME280;8936;49.010;12.120;2023-04-16T09:00:54;97917.06;;;11.59;100.00
17635;BME280;8936;49.010;12.120;2023-04-16T09:03:22;97914.09;;;11.66;100.00
17635;BME280;8936;49.010;12.120;2023-04-16T09:05:48;97911.97;;;11.53;100.00
17635;BME280;8936;49.010;12.120;2023-04-16T09:08:15;97925.59;;;11.46;100.00
17635;BME280;8936;49.010;12.120;2023-04-16T09:10:42;97929.88;;;11.22;100.00
17635;BME280;8936;49.010;12.120;2023-04-16T09:13:08;97936.31;;;11.26;100.00
17635;BME280;8936;49.010;12.120;2023-04-16T09:15:37;97934.97;;;11.44;100.00
17635;BME280;8936;49.010;12.120;2023-04-16T09:18:04;97934.19;;;11.38;100.00
17635;BME280;8936;49.010;12.120;2023-04-16T09:20:32;97934.16;;;11.33;100.00
17635;BME280;8936;49.010;12.120;2023-04-16T09:22:58;97933.91;;;11.19;100.00
17635;BME280;8936;49.010;12.120;2023-04-16T09:25:25;97943.25;;;11.17;100.00
17635;BME280;8936;49.010;12.120;2023-04-16T09:27:51;97945.63;;;11.03;100.00
17635;BME280;8936;49.010;12.120;2023-04-16T09:30:18;97937.34;;;10.95;100.00
17635;BME280;8936;49.010;12.120;2023-04-16T09:32:46;97939.47;;;11.03;100.00
17635;BME280;8936;49.010;12.120;2023-04-16T09:35:12;97946.97;;;11.01;100.00
17635;BME280;8936;49.010;12.120;2023-04-16T09:37:41;97945.59;;;10.93;100.00
17635;BME280;8936;49.010;12.120;2023-04-16T09:40:07;97946.91;;;10.70;100.00
17635;BME280;8936;49.010;12.120;2023-04-16T09:42:35;97942.63;;;10.74;100.00
17635;BME280;8936;49.010;12.120;2023-04-16T09:45:02;97938.06;;;10.70;100.00
17635;BME280;8936;49.010;12.120;2023-04-16T09:47:37;97942.81;;;10.48;100.00
17635;BME280;8936;49.010;12.120;2023-04-16T09:50:04;97941.56;;;10.70;100.00
17635;BME280;8936;49.010;12.120;2023-04-16T09:52:30;97947.19;;;10.79;100.00
17635;BME280;8936;49.010;12.120;2023-04-16T09:54:58;97959.25;;;10.92;100.00
17635;BME280;8936;49.010;12.120;2023-04-16T09:57:24;97953.91;;;10.92;100.00
17635;BME280;8936;49.010;12.120;2023-04-16T09:59:51;97951.75;;;10.89;100.00
17635;BME280;8936;49.010;12.120;2023-04-16T10:02:18;97958.19;;;10.98;100.00
17635;BME280;8936;49.010;12.120;2023-04-16T10:04:45;97958.19;;;11.03;100.00
17635;BME280;8936;49.010;12.120;2023-04-16T10:07:12;97959.25;;;11.02;100.00
17635;BME280;8936;49.010;12.120;2023-04-16T10:09:38;97962.50;;;11.24;100.00
17635;BME280;8936;49.010;12.120;2023-04-16T10:12:06;97960.88;;;11.08;100.00
17635;BME280;8936;49.010;12.120;2023-04-16T10:14:33;97963.53;;;11.03;100.00
17635;BME280;8936;49.010;12.120;2023-04-16T10:16:59;97966.75;;;11.10;100.00
17635;BME280;8936;49.010;12.120;2023-04-16T10:19:26;97962.50;;;11.29;100.00
17635;BME280;8936;49.010;12.120;2023-04-16T10:21:53;97965.19;;;11.29;100.00
17635;BME280;8936;49.010;12.120;2023-04-16T10:24:20;97965.72;;;11.46;100.00
17635;BME280;8936;49.010;12.120;2023-04-16T10:26:47;97962.78;;;11.58;100.00
17635;BME280;8936;49.010;12.120;2023-04-16T10:29:16;97963.84;;;11.31;100.00
17635;BME280;8936;49.010;12.120;2023-04-16T10:31:43;97968.38;;;11.31;100.00
17635;BME280;8936;49.010;12.120;2023-04-16T10:34:09;97974.81;;;11.45;100.00
17635;BME280;8936;49.010;12.120;2023-04-16T10:36:36;97973.19;;;11.39;100.00
17635;BME280;8936;49.010;12.120;2023-04-16T10:39:05;97977.47;;;11.30;100.00
17635;BME280;8936;49.010;12.120;2023-04-16T10:41:34;97974.81;;;11.45;100.00
17635;BME280;8936;49.010;12.120;2023-04-16T10:44:04;97971.59;;;11.58;100.00
17635;BME280;8936;49.010;12.120;2023-04-16T10:46:35;97974.28;;;11.48;100.00
17635;BME280;8936;49.010;12.120;2023-04-16T10:49:12;97972.94;;;11.41;100.00
17635;BME280;8936;49.010;12.120;2023-04-16T10:51:38;97971.34;;;11.60;100.00
17635;BME280;8936;49.010;12.120;2023-04-16T10:54:18;97974.03;;;11.45;100.00
17635;BME280;8936;49.010;12.120;2023-04-16T10:56:45;97971.63;;;11.68;100.00
17635;BME280;8936;49.010;12.120;2023-04-16T10:59:11;97976.16;;;11.58;100.00
17635;BME280;8936;49.010;12.120;2023-04-16T11:01:42;97972.69;;;11.82;100.00
17635;BME280;8936;49.010;12.120;2023-04-16T11:04:28;97980.47;;;11.79;100.00
17635;BME280;8936;49.010;12.120;2023-04-16T11:07:04;97979.91;;;11.92;100.00
17635;BME280;8936;49.010;12.120;2023-04-16T11:12:14;97978.59;;;11.74;100.00
17635;BME280;8936;49.010;12.120;2023-04-16T11:14:40;97968.94;;;11.94;100.00
17635;BME280;8936;49.010;12.120;2023-04-16T11:17:08;97972.94;;;12.11;100.00
17635;BME280;8936;49.010;12.120;2023-04-16T11:19:35;97975.88;;;12.10;100.00
17635;BME280;8936;49.010;12.120;2023-04-16T11:22:01;97976.09;;;12.23;100.00
17635;BME280;8936;49.010;12.120;2023-04-16T11:24:28;97972.38;;;12.14;100.00
17635;BME280;8936;49.010;12.120;2023-04-16T11:26:54;97973.75;;;11.91;100.00
17635;BME280;8936;49.010;12.120;2023-04-16T11:29:21;97969.22;;;11.92;100.00
17635;BME280;8936;49.010;12.120;2023-04-16T11:31:48;97972.72;;;11.87;100.00
17635;BME280;8936;49.010;12.120;2023-04-16T11:34:16;97973.22;;;11.89;100.00
17635;BME280;8936;49.010;12.120;2023-04-16T11:36:43;97984.75;;;11.90;100.00
17635;BME280;8936;49.010;12.120;2023-04-16T11:39:09;97976.44;;;11.91;100.00
17635;BME280;8936;49.010;12.120;2023-04-16T11:41:40;97974.84;;;11.75;100.00
17635;BME280;8936;49.010;12.120;2023-04-16T11:44:15;97975.09;;;11.99;100.00
17635;BME280;8936;49.010;12.120;2023-04-16T11:46:42;97980.06;;;12.41;100.00
17635;BME280;8936;49.010;12.120;2023-04-16T11:49:08;97979.06;;;12.91;100.00
17635;BME280;8936;49.010;12.120;2023-04-16T11:51:39;97982.91;;;12.70;100.00
17635;BME280;8936;49.010;12.120;2023-04-16T11:54:06;97977.97;;;12.33;100.00
17635;BME280;8936;49.010;12.120;2023-04-16T11:56:33;97983.56;;;12.41;100.00
17635;BME280;8936;49.010;12.120;2023-04-16T11:59:06;97979.00;;;12.42;100.00
17635;BME280;8936;49.010;12.120;2023-04-16T12:01:33;97984.88;;;12.49;100.00
17635;BME280;8936;49.010;12.120;2023-04-16T12:04:00;97982.78;;;12.31;100.00
17635;BME280;8936;49.010;12.120;2023-04-16T12:06:27;97992.09;;;12.49;100.00
17635;BME280;8936;49.010;12.120;2023-04-16T12:08:54;97992.88;;;12.54;100.00
17635;BME280;8936;49.010;12.120;2023-04-16T12:11:21;97981.47;;;12.13;100.00
17635;BME280;8936;49.010;12.120;2023-04-16T12:14:08;97985.09;;;12.68;100.00
17635;BME280;8936;49.010;12.120;2023-04-16T12:16:35;97987.53;;;12.54;100.00
17635;BME280;8936;49.010;12.120;2023-04-16T12:19:01;97987.81;;;12.48;100.00
17635;BME280;8936;49.010;12.120;2023-04-16T12:21:35;97979.50;;;12.59;100.00
17635;BME280;8936;49.010;12.120;2023-04-16T12:24:02;97980.94;;;12.95;100.00
17635;BME280;8936;49.010;12.120;2023-04-16T12:26:34;97977.03;;;13.22;100.00
17635;BME280;8936;49.010;12.120;2023-04-16T12:29:12;97982.84;;;13.39;100.00
17635;BME280;8936;49.010;12.120;2023-04-16T12:31:39;97980.81;;;13.21;100.00
17635;BME280;8936;49.010;12.120;2023-04-16T12:34:05;97985.38;;;12.61;100.00
17635;BME280;8936;49.010;12.120;2023-04-16T12:36:32;97980.91;;;13.00;100.00
17635;BME280;8936;49.010;12.120;2023-04-16T12:38:58;97980.47;;;12.83;100.00
17635;BME280;8936;49.010;12.120;2023-04-16T12:41:26;97973.56;;;12.67;100.00
17635;BME280;8936;49.010;12.120;2023-04-16T12:44:00;97974.97;;;13.04;100.00
17635;BME280;8936;49.010;12.120;2023-04-16T12:46:27;97978.13;;;13.21;100.00
17635;BME280;8936;49.010;12.120;2023-04-16T12:48:53;97972.44;;;13.32;100.00
17635;BME280;8936;49.010;12.120;2023-04-16T12:51:20;97973.91;;;13.05;100.00